イスタンブル の空港の天気 - METARとTAF

アタテュルク国際空港(イスタンブル) ( LTBA / IST ) - トルコ イスタンブル
飛行場実況気象(Metar)
観測時間10/20 06:50 EET (10/20 03:50 UTC)
風向・風速北 3m/s
視程7000m
天気現象
なし
気温14℃
湿度94%
気圧1021hPa
METARLTBA 200350Z 35006KT 7000 NSC 14/13 Q1021 NOSIG RMK RWY17L 34004KT RWY05 34004KT RWY23 35004KT
過去の天気等 Google飛行場航空写真 Wunderground天気予報

過去48時間のMETAR

飛行場予報(TAF)
発表時間: 10/20 01:40 EET (10/19 22:40 UTC)
予報対象時間: 20日3時 EET ~ 21日9時 EET
風向・風速不定 1m/s
視程10km以上
なし
20日3時 EET ~ 20日6時 EET に徐々に
視程4000m
天気現象もや
全天の4割程度の雲 雲底高度 370m
20日6時 EET ~ 20日9時 EET に 確率 30% で一時的に
視程1600m
天気現象散在した霧
全天の8割程度の雲 雲底高度 370m
20日9時 EET ~ 20日12時 EET に徐々に
風向・風速北北東 6m/s
視程10km以上
天気現象運行に影響にある天気現象が終了
20日18時 EET ~ 20日21時 EET に徐々に
風向・風速不定 1m/s
TAF LTBA 192240Z 2000/2106 VRB02KT CAVOK
BECMG 2000/2003 4000 BR SCT012
PROB30 TEMPO 2003/2006 1600 BCFG BKN012
BECMG 2006/2009 03012KT 9999 NSW
BECMG 2015/2018 VRB02KT